sensor_id;sensor_type;location;lat;lon;timestamp;P1;durP1;ratioP1;P2;durP2;ratioP2
68089;SDS011;54880;50.986;6.990;2024-02-14T00:01:41;5.80;;;2.10;;
68089;SDS011;54880;50.986;6.990;2024-02-14T00:04:06;7.13;;;1.90;;
68089;SDS011;54880;50.986;6.990;2024-02-14T00:06:35;6.78;;;2.05;;
68089;SDS011;54880;50.986;6.990;2024-02-14T00:09:01;7.37;;;2.30;;
68089;SDS011;54880;50.986;6.990;2024-02-14T00:11:27;7.15;;;1.85;;
68089;SDS011;54880;50.986;6.990;2024-02-14T00:13:52;10.47;;;2.47;;
68089;SDS011;54880;50.986;6.990;2024-02-14T00:16:17;5.77;;;1.67;;
68089;SDS011;54880;50.986;6.990;2024-02-14T00:18:43;6.17;;;1.33;;
68089;SDS011;54880;50.986;6.990;2024-02-14T00:21:08;5.47;;;1.37;;
68089;SDS011;54880;50.986;6.990;2024-02-14T00:23:33;5.27;;;1.43;;
68089;SDS011;54880;50.986;6.990;2024-02-14T00:25:58;5.27;;;1.30;;
68089;SDS011;54880;50.986;6.990;2024-02-14T00:28:24;4.30;;;1.30;;
68089;SDS011;54880;50.986;6.990;2024-02-14T00:30:51;4.78;;;1.23;;
68089;SDS011;54880;50.986;6.990;2024-02-14T00:33:17;5.60;;;1.17;;
68089;SDS011;54880;50.986;6.990;2024-02-14T00:35:43;5.07;;;1.20;;
68089;SDS011;54880;50.986;6.990;2024-02-14T00:38:09;4.27;;;1.20;;
68089;SDS011;54880;50.986;6.990;2024-02-14T00:40:34;5.00;;;1.17;;
68089;SDS011;54880;50.986;6.990;2024-02-14T00:43:00;5.23;;;1.20;;
68089;SDS011;54880;50.986;6.990;2024-02-14T00:45:25;5.90;;;1.30;;
68089;SDS011;54880;50.986;6.990;2024-02-14T00:47:50;5.63;;;1.40;;
68089;SDS011;54880;50.986;6.990;2024-02-14T00:50:15;5.30;;;1.27;;
68089;SDS011;54880;50.986;6.990;2024-02-14T00:52:41;5.95;;;1.10;;
68089;SDS011;54880;50.986;6.990;2024-02-14T00:55:07;6.43;;;1.10;;
68089;SDS011;54880;50.986;6.990;2024-02-14T00:57:32;4.00;;;0.90;;
68089;SDS011;54880;50.986;6.990;2024-02-14T00:59:57;4.47;;;1.17;;
68089;SDS011;54880;50.986;6.990;2024-02-14T01:02:23;5.28;;;1.35;;
68089;SDS011;54880;50.986;6.990;2024-02-14T01:04:48;5.47;;;1.00;;
68089;SDS011;54880;50.986;6.990;2024-02-14T01:07:13;5.97;;;1.40;;
68089;SDS011;54880;50.986;6.990;2024-02-14T01:09:38;6.13;;;1.30;;
68089;SDS011;54880;50.986;6.990;2024-02-14T01:12:04;4.30;;;1.20;;
68089;SDS011;54880;50.986;6.990;2024-02-14T01:14:30;4.87;;;1.10;;
68089;SDS011;54880;50.986;6.990;2024-02-14T01:16:55;4.68;;;0.98;;
68089;SDS011;54880;50.986;6.990;2024-02-14T01:19:21;4.47;;;1.27;;
68089;SDS011;54880;50.986;6.990;2024-02-14T01:21:49;6.20;;;1.60;;
68089;SDS011;54880;50.986;6.990;2024-02-14T01:24:14;6.27;;;1.50;;
68089;SDS011;54880;50.986;6.990;2024-02-14T01:26:39;3.92;;;1.10;;
68089;SDS011;54880;50.986;6.990;2024-02-14T01:29:05;6.07;;;1.10;;
68089;SDS011;54880;50.986;6.990;2024-02-14T01:31:30;6.67;;;1.10;;
68089;SDS011;54880;50.986;6.990;2024-02-14T01:33:56;4.63;;;1.00;;
68089;SDS011;54880;50.986;6.990;2024-02-14T01:36:22;4.15;;;1.00;;
68089;SDS011;54880;50.986;6.990;2024-02-14T01:38:48;4.20;;;1.13;;
68089;SDS011;54880;50.986;6.990;2024-02-14T01:41:13;5.03;;;1.20;;
68089;SDS011;54880;50.986;6.990;2024-02-14T01:43:38;3.80;;;1.03;;
68089;SDS011;54880;50.986;6.990;2024-02-14T01:46:07;5.83;;;1.00;;
68089;SDS011;54880;50.986;6.990;2024-02-14T01:48:35;6.63;;;1.35;;
68089;SDS011;54880;50.986;6.990;2024-02-14T01:51:01;4.38;;;1.13;;
68089;SDS011;54880;50.986;6.990;2024-02-14T01:53:27;5.55;;;1.40;;
68089;SDS011;54880;50.986;6.990;2024-02-14T01:55:55;4.13;;;1.13;;
68089;SDS011;54880;50.986;6.990;2024-02-14T01:58:20;4.33;;;1.20;;
68089;SDS011;54880;50.986;6.990;2024-02-14T02:00:46;6.03;;;1.30;;
68089;SDS011;54880;50.986;6.990;2024-02-14T02:03:13;4.90;;;1.00;;
68089;SDS011;54880;50.986;6.990;2024-02-14T02:05:39;5.13;;;1.30;;
68089;SDS011;54880;50.986;6.990;2024-02-14T02:08:07;4.73;;;1.00;;
68089;SDS011;54880;50.986;6.990;2024-02-14T02:10:32;4.43;;;0.97;;
68089;SDS011;54880;50.986;6.990;2024-02-14T02:12:58;3.97;;;0.85;;
68089;SDS011;54880;50.986;6.990;2024-02-14T02:15:24;4.38;;;0.95;;
68089;SDS011;54880;50.986;6.990;2024-02-14T02:17:49;4.20;;;1.10;;
68089;SDS011;54880;50.986;6.990;2024-02-14T02:20:17;3.80;;;0.90;;
68089;SDS011;54880;50.986;6.990;2024-02-14T02:22:48;4.03;;;1.00;;
68089;SDS011;54880;50.986;6.990;2024-02-14T02:25:14;4.60;;;1.10;;
68089;SDS011;54880;50.986;6.990;2024-02-14T02:27:39;5.43;;;1.10;;
68089;SDS011;54880;50.986;6.990;2024-02-14T02:30:05;5.23;;;0.90;;
68089;SDS011;54880;50.986;6.990;2024-02-14T02:32:31;4.50;;;1.30;;
68089;SDS011;54880;50.986;6.990;2024-02-14T02:34:56;5.22;;;1.10;;
68089;SDS011;54880;50.986;6.990;2024-02-14T02:37:23;4.00;;;1.10;;
68089;SDS011;54880;50.986;6.990;2024-02-14T02:39:48;4.20;;;0.90;;
68089;SDS011;54880;50.986;6.990;2024-02-14T02:42:13;4.25;;;0.98;;
68089;SDS011;54880;50.986;6.990;2024-02-14T02:44:39;4.60;;;1.10;;
68089;SDS011;54880;50.986;6.990;2024-02-14T02:47:04;3.80;;;0.90;;
68089;SDS011;54880;50.986;6.990;2024-02-14T02:49:30;3.90;;;1.00;;
68089;SDS011;54880;50.986;6.990;2024-02-14T02:51:55;4.30;;;1.00;;
68089;SDS011;54880;50.986;6.990;2024-02-14T02:54:21;4.57;;;1.10;;
68089;SDS011;54880;50.986;6.990;2024-02-14T02:56:48;3.55;;;0.90;;
68089;SDS011;54880;50.986;6.990;2024-02-14T02:59:13;3.57;;;0.93;;
68089;SDS011;54880;50.986;6.990;2024-02-14T03:01:41;5.00;;;1.03;;
68089;SDS011;54880;50.986;6.990;2024-02-14T03:04:07;4.70;;;1.50;;
68089;SDS011;54880;50.986;6.990;2024-02-14T03:06:33;4.63;;;1.02;;
68089;SDS011;54880;50.986;6.990;2024-02-14T03:08:58;5.83;;;1.00;;
68089;SDS011;54880;50.986;6.990;2024-02-14T03:11:24;3.22;;;0.70;;
68089;SDS011;54880;50.986;6.990;2024-02-14T03:13:51;4.13;;;0.93;;
68089;SDS011;54880;50.986;6.990;2024-02-14T03:16:16;3.67;;;1.07;;
68089;SDS011;54880;50.986;6.990;2024-02-14T03:18:42;4.75;;;1.13;;
68089;SDS011;54880;50.986;6.990;2024-02-14T03:21:08;3.20;;;0.80;;
68089;SDS011;54880;50.986;6.990;2024-02-14T03:23:33;4.70;;;1.10;;
68089;SDS011;54880;50.986;6.990;2024-02-14T03:25:58;4.17;;;1.07;;
68089;SDS011;54880;50.986;6.990;2024-02-14T03:28:24;4.10;;;1.10;;
68089;SDS011;54880;50.986;6.990;2024-02-14T03:30:50;6.03;;;1.23;;
68089;SDS011;54880;50.986;6.990;2024-02-14T03:33:15;3.80;;;0.97;;
68089;SDS011;54880;50.986;6.990;2024-02-14T03:35:40;4.63;;;1.00;;
68089;SDS011;54880;50.986;6.990;2024-02-14T03:38:06;3.57;;;0.83;;
68089;SDS011;54880;50.986;6.990;2024-02-14T03:40:33;3.70;;;0.70;;
68089;SDS011;54880;50.986;6.990;2024-02-14T03:42:59;3.10;;;0.80;;
68089;SDS011;54880;50.986;6.990;2024-02-14T03:45:24;5.80;;;1.30;;
68089;SDS011;54880;50.986;6.990;2024-02-14T03:47:49;4.77;;;1.27;;
68089;SDS011;54880;50.986;6.990;2024-02-14T03:50:15;3.15;;;0.73;;
68089;SDS011;54880;50.986;6.990;2024-02-14T03:52:41;4.67;;;1.00;;
68089;SDS011;54880;50.986;6.990;2024-02-14T03:55:07;3.75;;;0.80;;
68089;SDS011;54880;50.986;6.990;2024-02-14T03:57:34;5.07;;;1.10;;
68089;SDS011;54880;50.986;6.990;2024-02-14T04:00:03;4.30;;;1.10;;
68089;SDS011;54880;50.986;6.990;2024-02-14T04:02:36;3.85;;;1.00;;
68089;SDS011;54880;50.986;6.990;2024-02-14T04:05:02;3.70;;;1.00;;
68089;SDS011;54880;50.986;6.990;2024-02-14T04:07:27;4.27;;;1.13;;
68089;SDS011;54880;50.986;6.990;2024-02-14T04:09:53;3.97;;;1.10;;
68089;SDS011;54880;50.986;6.990;2024-02-14T04:12:18;4.23;;;1.00;;
68089;SDS011;54880;50.986;6.990;2024-02-14T04:14:43;4.03;;;0.90;;
68089;SDS011;54880;50.986;6.990;2024-02-14T04:17:08;4.93;;;1.10;;
68089;SDS011;54880;50.986;6.990;2024-02-14T04:19:34;4.20;;;1.10;;
68089;SDS011;54880;50.986;6.990;2024-02-14T04:21:59;4.60;;;1.10;;
68089;SDS011;54880;50.986;6.990;2024-02-14T04:24:24;4.10;;;1.00;;
68089;SDS011;54880;50.986;6.990;2024-02-14T04:26:49;6.03;;;1.20;;
68089;SDS011;54880;50.986;6.990;2024-02-14T04:29:15;5.47;;;1.20;;
68089;SDS011;54880;50.986;6.990;2024-02-14T04:31:40;4.57;;;1.20;;
68089;SDS011;54880;50.986;6.990;2024-02-14T04:34:05;4.80;;;1.27;;
68089;SDS011;54880;50.986;6.990;2024-02-14T04:36:33;3.75;;;0.90;;
68089;SDS011;54880;50.986;6.990;2024-02-14T04:39:00;4.07;;;1.15;;
68089;SDS011;54880;50.986;6.990;2024-02-14T04:41:25;4.20;;;0.97;;
68089;SDS011;54880;50.986;6.990;2024-02-14T04:43:51;4.80;;;1.10;;
68089;SDS011;54880;50.986;6.990;2024-02-14T04:46:16;4.43;;;1.10;;
68089;SDS011;54880;50.986;6.990;2024-02-14T04:48:41;4.47;;;1.30;;
68089;SDS011;54880;50.986;6.990;2024-02-14T04:51:07;3.80;;;1.10;;
68089;SDS011;54880;50.986;6.990;2024-02-14T04:53:32;3.80;;;1.10;;
68089;SDS011;54880;50.986;6.990;2024-02-14T04:55:58;3.27;;;0.90;;
68089;SDS011;54880;50.986;6.990;2024-02-14T04:58:23;4.07;;;1.10;;
68089;SDS011;54880;50.986;6.990;2024-02-14T05:00:48;4.13;;;1.07;;
68089;SDS011;54880;50.986;6.990;2024-02-14T05:03:13;5.00;;;1.30;;
68089;SDS011;54880;50.986;6.990;2024-02-14T05:05:39;3.90;;;1.00;;
68089;SDS011;54880;50.986;6.990;2024-02-14T05:08:04;4.20;;;1.07;;
68089;SDS011;54880;50.986;6.990;2024-02-14T05:10:29;3.77;;;1.20;;
68089;SDS011;54880;50.986;6.990;2024-02-14T05:12:55;4.37;;;0.97;;
68089;SDS011;54880;50.986;6.990;2024-02-14T05:15:20;4.38;;;1.10;;
68089;SDS011;54880;50.986;6.990;2024-02-14T05:17:45;4.90;;;1.42;;
68089;SDS011;54880;50.986;6.990;2024-02-14T05:20:11;5.07;;;1.00;;
68089;SDS011;54880;50.986;6.990;2024-02-14T05:22:36;4.23;;;1.00;;
68089;SDS011;54880;50.986;6.990;2024-02-14T05:25:03;6.13;;;1.45;;
68089;SDS011;54880;50.986;6.990;2024-02-14T05:27:29;4.33;;;1.37;;
68089;SDS011;54880;50.986;6.990;2024-02-14T05:29:54;7.05;;;1.17;;
68089;SDS011;54880;50.986;6.990;2024-02-14T05:32:19;4.27;;;1.03;;
68089;SDS011;54880;50.986;6.990;2024-02-14T05:34:45;5.10;;;1.17;;
68089;SDS011;54880;50.986;6.990;2024-02-14T05:37:10;4.27;;;1.20;;
68089;SDS011;54880;50.986;6.990;2024-02-14T05:39:35;4.40;;;1.10;;
68089;SDS011;54880;50.986;6.990;2024-02-14T05:42:00;4.50;;;1.10;;
68089;SDS011;54880;50.986;6.990;2024-02-14T05:44:26;5.43;;;1.20;;
68089;SDS011;54880;50.986;6.990;2024-02-14T05:46:55;5.03;;;1.13;;
68089;SDS011;54880;50.986;6.990;2024-02-14T05:49:21;5.10;;;1.10;;
68089;SDS011;54880;50.986;6.990;2024-02-14T05:51:46;4.72;;;1.20;;
68089;SDS011;54880;50.986;6.990;2024-02-14T05:54:12;4.60;;;1.33;;
68089;SDS011;54880;50.986;6.990;2024-02-14T05:56:37;5.63;;;1.30;;
68089;SDS011;54880;50.986;6.990;2024-02-14T05:59:02;6.23;;;1.40;;
68089;SDS011;54880;50.986;6.990;2024-02-14T06:01:27;4.97;;;1.40;;
68089;SDS011;54880;50.986;6.990;2024-02-14T06:03:53;5.13;;;1.70;;
68089;SDS011;54880;50.986;6.990;2024-02-14T06:06:19;4.13;;;1.20;;
68089;SDS011;54880;50.986;6.990;2024-02-14T06:08:44;7.40;;;1.57;;
68089;SDS011;54880;50.986;6.990;2024-02-14T06:11:09;5.90;;;1.60;;
68089;SDS011;54880;50.986;6.990;2024-02-14T06:13:34;5.40;;;1.50;;
68089;SDS011;54880;50.986;6.990;2024-02-14T06:16:01;4.47;;;1.40;;
68089;SDS011;54880;50.986;6.990;2024-02-14T06:18:26;5.60;;;1.40;;
68089;SDS011;54880;50.986;6.990;2024-02-14T06:20:51;6.07;;;1.50;;
68089;SDS011;54880;50.986;6.990;2024-02-14T06:23:17;4.37;;;1.40;;
68089;SDS011;54880;50.986;6.990;2024-02-14T06:25:42;4.50;;;1.20;;
68089;SDS011;54880;50.986;6.990;2024-02-14T06:28:07;4.28;;;1.48;;
68089;SDS011;54880;50.986;6.990;2024-02-14T06:30:34;5.27;;;1.60;;
68089;SDS011;54880;50.986;6.990;2024-02-14T06:32:59;4.70;;;1.40;;
68089;SDS011;54880;50.986;6.990;2024-02-14T06:35:26;5.63;;;1.52;;
68089;SDS011;54880;50.986;6.990;2024-02-14T06:37:51;5.90;;;1.70;;
68089;SDS011;54880;50.986;6.990;2024-02-14T06:40:16;6.23;;;1.70;;
68089;SDS011;54880;50.986;6.990;2024-02-14T06:42:41;5.90;;;1.40;;
68089;SDS011;54880;50.986;6.990;2024-02-14T06:45:07;6.63;;;1.93;;
68089;SDS011;54880;50.986;6.990;2024-02-14T06:47:32;5.55;;;1.50;;
68089;SDS011;54880;50.986;6.990;2024-02-14T06:49:57;6.28;;;1.95;;
68089;SDS011;54880;50.986;6.990;2024-02-14T06:52:22;5.75;;;2.17;;
68089;SDS011;54880;50.986;6.990;2024-02-14T06:54:48;6.65;;;1.90;;
68089;SDS011;54880;50.986;6.990;2024-02-14T06:57:13;8.00;;;2.38;;
68089;SDS011;54880;50.986;6.990;2024-02-14T06:59:39;5.78;;;1.55;;
68089;SDS011;54880;50.986;6.990;2024-02-14T07:02:04;7.00;;;1.80;;
68089;SDS011;54880;50.986;6.990;2024-02-14T07:04:30;5.63;;;1.90;;
68089;SDS011;54880;50.986;6.990;2024-02-14T07:06:55;5.63;;;1.67;;
68089;SDS011;54880;50.986;6.990;2024-02-14T07:09:21;5.33;;;1.80;;
68089;SDS011;54880;50.986;6.990;2024-02-14T07:11:46;5.30;;;1.67;;
68089;SDS011;54880;50.986;6.990;2024-02-14T07:14:11;5.80;;;1.40;;
68089;SDS011;54880;50.986;6.990;2024-02-14T07:16:37;4.93;;;1.40;;
68089;SDS011;54880;50.986;6.990;2024-02-14T07:19:02;4.80;;;1.40;;
68089;SDS011;54880;50.986;6.990;2024-02-14T07:21:27;5.17;;;1.50;;
68089;SDS011;54880;50.986;6.990;2024-02-14T07:23:52;4.80;;;1.47;;
68089;SDS011;54880;50.986;6.990;2024-02-14T07:26:18;5.32;;;1.40;;
68089;SDS011;54880;50.986;6.990;2024-02-14T07:28:44;5.60;;;1.47;;
68089;SDS011;54880;50.986;6.990;2024-02-14T07:31:09;4.20;;;1.30;;
68089;SDS011;54880;50.986;6.990;2024-02-14T07:33:35;6.27;;;1.00;;
68089;SDS011;54880;50.986;6.990;2024-02-14T07:36:00;4.10;;;0.90;;
68089;SDS011;54880;50.986;6.990;2024-02-14T07:38:25;4.37;;;1.00;;
68089;SDS011;54880;50.986;6.990;2024-02-14T07:40:51;4.83;;;1.30;;
68089;SDS011;54880;50.986;6.990;2024-02-14T07:43:17;3.72;;;0.98;;
68089;SDS011;54880;50.986;6.990;2024-02-14T07:45:42;5.63;;;1.27;;
68089;SDS011;54880;50.986;6.990;2024-02-14T07:48:07;4.83;;;1.10;;
68089;SDS011;54880;50.986;6.990;2024-02-14T07:50:33;4.88;;;1.27;;
68089;SDS011;54880;50.986;6.990;2024-02-14T07:52:58;4.93;;;1.20;;
68089;SDS011;54880;50.986;6.990;2024-02-14T07:55:24;4.60;;;1.20;;
68089;SDS011;54880;50.986;6.990;2024-02-14T07:57:49;5.60;;;1.03;;
68089;SDS011;54880;50.986;6.990;2024-02-14T08:00:14;6.53;;;1.13;;
68089;SDS011;54880;50.986;6.990;2024-02-14T08:02:47;4.53;;;1.00;;
68089;SDS011;54880;50.986;6.990;2024-02-14T08:05:12;6.60;;;1.30;;
68089;SDS011;54880;50.986;6.990;2024-02-14T08:07:38;5.97;;;1.00;;
68089;SDS011;54880;50.986;6.990;2024-02-14T08:10:03;5.10;;;1.30;;
68089;SDS011;54880;50.986;6.990;2024-02-14T08:12:30;4.90;;;1.10;;
68089;SDS011;54880;50.986;6.990;2024-02-14T08:14:55;7.10;;;1.47;;
68089;SDS011;54880;50.986;6.990;2024-02-14T08:17:20;4.60;;;1.20;;
68089;SDS011;54880;50.986;6.990;2024-02-14T08:19:46;3.93;;;1.10;;
68089;SDS011;54880;50.986;6.990;2024-02-14T08:22:11;5.30;;;1.30;;
68089;SDS011;54880;50.986;6.990;2024-02-14T08:24:37;6.43;;;1.40;;
68089;SDS011;54880;50.986;6.990;2024-02-14T08:27:03;5.10;;;1.30;;
68089;SDS011;54880;50.986;6.990;2024-02-14T08:29:31;6.95;;;1.38;;
68089;SDS011;54880;50.986;6.990;2024-02-14T08:31:56;4.00;;;1.10;;
68089;SDS011;54880;50.986;6.990;2024-02-14T08:34:22;6.10;;;1.20;;
68089;SDS011;54880;50.986;6.990;2024-02-14T08:36:47;4.57;;;1.00;;
68089;SDS011;54880;50.986;6.990;2024-02-14T08:39:12;4.70;;;1.13;;
68089;SDS011;54880;50.986;6.990;2024-02-14T08:41:38;4.47;;;1.00;;
68089;SDS011;54880;50.986;6.990;2024-02-14T08:44:04;3.80;;;0.90;;
68089;SDS011;54880;50.986;6.990;2024-02-14T08:46:30;4.30;;;0.90;;
68089;SDS011;54880;50.986;6.990;2024-02-14T08:48:55;4.30;;;1.10;;
68089;SDS011;54880;50.986;6.990;2024-02-14T08:51:20;3.97;;;1.03;;
68089;SDS011;54880;50.986;6.990;2024-02-14T08:53:46;5.60;;;1.20;;
68089;SDS011;54880;50.986;6.990;2024-02-14T08:56:11;5.07;;;1.00;;
68089;SDS011;54880;50.986;6.990;2024-02-14T08:58:37;5.55;;;1.25;;
68089;SDS011;54880;50.986;6.990;2024-02-14T09:01:02;4.23;;;1.10;;
68089;SDS011;54880;50.986;6.990;2024-02-14T09:03:27;3.87;;;0.93;;
68089;SDS011;54880;50.986;6.990;2024-02-14T09:05:52;4.03;;;1.00;;
68089;SDS011;54880;50.986;6.990;2024-02-14T09:08:22;4.32;;;1.00;;
68089;SDS011;54880;50.986;6.990;2024-02-14T09:10:47;5.00;;;0.90;;
68089;SDS011;54880;50.986;6.990;2024-02-14T09:13:13;3.78;;;0.95;;
68089;SDS011;54880;50.986;6.990;2024-02-14T09:15:39;5.13;;;1.20;;
68089;SDS011;54880;50.986;6.990;2024-02-14T09:18:04;4.83;;;1.07;;
68089;SDS011;54880;50.986;6.990;2024-02-14T09:20:30;5.93;;;1.40;;
68089;SDS011;54880;50.986;6.990;2024-02-14T09:22:55;6.25;;;1.45;;
68089;SDS011;54880;50.986;6.990;2024-02-14T09:25:20;5.00;;;1.10;;
68089;SDS011;54880;50.986;6.990;2024-02-14T09:27:49;5.47;;;1.13;;
68089;SDS011;54880;50.986;6.990;2024-02-14T09:30:14;4.80;;;1.20;;
68089;SDS011;54880;50.986;6.990;2024-02-14T09:32:39;6.47;;;1.00;;
68089;SDS011;54880;50.986;6.990;2024-02-14T09:35:05;4.28;;;1.25;;
68089;SDS011;54880;50.986;6.990;2024-02-14T09:37:32;4.00;;;1.02;;
68089;SDS011;54880;50.986;6.990;2024-02-14T09:39:57;5.55;;;1.00;;
68089;SDS011;54880;50.986;6.990;2024-02-14T09:42:32;5.33;;;1.07;;
68089;SDS011;54880;50.986;6.990;2024-02-14T09:45:02;4.88;;;1.25;;
68089;SDS011;54880;50.986;6.990;2024-02-14T09:47:28;6.43;;;1.20;;
68089;SDS011;54880;50.986;6.990;2024-02-14T09:49:55;5.63;;;1.05;;
68089;SDS011;54880;50.986;6.990;2024-02-14T09:52:21;5.07;;;0.90;;
68089;SDS011;54880;50.986;6.990;2024-02-14T09:54:48;6.82;;;0.90;;
68089;SDS011;54880;50.986;6.990;2024-02-14T09:57:13;5.53;;;1.20;;
68089;SDS011;54880;50.986;6.990;2024-02-14T09:59:41;3.75;;;0.95;;
68089;SDS011;54880;50.986;6.990;2024-02-14T10:02:07;4.07;;;0.90;;
68089;SDS011;54880;50.986;6.990;2024-02-14T10:04:32;4.78;;;1.13;;
68089;SDS011;54880;50.986;6.990;2024-02-14T10:06:58;5.40;;;1.10;;
68089;SDS011;54880;50.986;6.990;2024-02-14T10:09:25;4.60;;;0.90;;
68089;SDS011;54880;50.986;6.990;2024-02-14T10:11:50;6.60;;;1.45;;
68089;SDS011;54880;50.986;6.990;2024-02-14T10:14:16;6.73;;;1.10;;
68089;SDS011;54880;50.986;6.990;2024-02-14T10:16:41;5.33;;;0.90;;
68089;SDS011;54880;50.986;6.990;2024-02-14T10:19:16;5.75;;;1.08;;
68089;SDS011;54880;50.986;6.990;2024-02-14T10:21:42;5.95;;;1.05;;
68089;SDS011;54880;50.986;6.990;2024-02-14T10:24:07;5.13;;;1.00;;
68089;SDS011;54880;50.986;6.990;2024-02-14T10:26:32;7.10;;;0.90;;
68089;SDS011;54880;50.986;6.990;2024-02-14T10:28:58;5.28;;;0.80;;
68089;SDS011;54880;50.986;6.990;2024-02-14T10:31:24;6.00;;;1.33;;
68089;SDS011;54880;50.986;6.990;2024-02-14T10:33:50;5.13;;;1.20;;
68089;SDS011;54880;50.986;6.990;2024-02-14T10:36:16;6.20;;;1.03;;
68089;SDS011;54880;50.986;6.990;2024-02-14T10:38:42;6.75;;;1.25;;
68089;SDS011;54880;50.986;6.990;2024-02-14T10:41:08;6.85;;;1.15;;
68089;SDS011;54880;50.986;6.990;2024-02-14T10:43:34;6.27;;;1.20;;
68089;SDS011;54880;50.986;6.990;2024-02-14T10:46:00;5.37;;;1.20;;
68089;SDS011;54880;50.986;6.990;2024-02-14T10:48:28;6.68;;;1.00;;
68089;SDS011;54880;50.986;6.990;2024-02-14T10:50:54;8.60;;;1.30;;
68089;SDS011;54880;50.986;6.990;2024-02-14T10:53:20;4.83;;;0.80;;
68089;SDS011;54880;50.986;6.990;2024-02-14T10:55:45;6.82;;;1.08;;
68089;SDS011;54880;50.986;6.990;2024-02-14T10:58:12;7.32;;;1.20;;
68089;SDS011;54880;50.986;6.990;2024-02-14T11:00:39;6.05;;;0.98;;
68089;SDS011;54880;50.986;6.990;2024-02-14T11:03:06;5.60;;;1.20;;
68089;SDS011;54880;50.986;6.990;2024-02-14T11:05:31;5.97;;;1.10;;
68089;SDS011;54880;50.986;6.990;2024-02-14T11:08:07;6.85;;;1.00;;
68089;SDS011;54880;50.986;6.990;2024-02-14T11:10:37;4.93;;;1.02;;
68089;SDS011;54880;50.986;6.990;2024-02-14T11:13:02;7.10;;;1.20;;
68089;SDS011;54880;50.986;6.990;2024-02-14T11:15:27;4.97;;;0.90;;
68089;SDS011;54880;50.986;6.990;2024-02-14T11:18:03;6.57;;;1.30;;
68089;SDS011;54880;50.986;6.990;2024-02-14T11:20:32;6.10;;;1.50;;
68089;SDS011;54880;50.986;6.990;2024-02-14T11:23:00;3.30;;;0.80;;
68089;SDS011;54880;50.986;6.990;2024-02-14T11:25:28;4.65;;;1.20;;
68089;SDS011;54880;50.986;6.990;2024-02-14T11:27:57;5.72;;;1.00;;
68089;SDS011;54880;50.986;6.990;2024-02-14T11:30:29;5.10;;;1.00;;
68089;SDS011;54880;50.986;6.990;2024-02-14T11:32:57;5.45;;;1.10;;
68089;SDS011;54880;50.986;6.990;2024-02-14T11:35:31;4.18;;;0.90;;
68089;SDS011;54880;50.986;6.990;2024-02-14T11:37:56;5.77;;;0.90;;
68089;SDS011;54880;50.986;6.990;2024-02-14T11:40:22;7.18;;;1.00;;
68089;SDS011;54880;50.986;6.990;2024-02-14T11:42:48;3.60;;;1.00;;
68089;SDS011;54880;50.986;6.990;2024-02-14T11:45:13;6.50;;;1.17;;
68089;SDS011;54880;50.986;6.990;2024-02-14T11:47:38;6.60;;;1.23;;
68089;SDS011;54880;50.986;6.990;2024-02-14T11:50:04;6.73;;;1.23;;
68089;SDS011;54880;50.986;6.990;2024-02-14T11:52:29;4.25;;;0.98;;
68089;SDS011;54880;50.986;6.990;2024-02-14T11:54:55;6.43;;;1.10;;
68089;SDS011;54880;50.986;6.990;2024-02-14T11:57:22;7.70;;;1.17;;
68089;SDS011;54880;50.986;6.990;2024-02-14T11:59:50;5.78;;;1.10;;
68089;SDS011;54880;50.986;6.990;2024-02-14T12:02:18;5.38;;;0.90;;
68089;SDS011;54880;50.986;6.990;2024-02-14T12:04:44;4.40;;;1.20;;
68089;SDS011;54880;50.986;6.990;2024-02-14T12:07:10;3.97;;;0.80;;
68089;SDS011;54880;50.986;6.990;2024-02-14T12:09:35;6.07;;;0.93;;
68089;SDS011;54880;50.986;6.990;2024-02-14T12:12:00;5.97;;;1.23;;
68089;SDS011;54880;50.986;6.990;2024-02-14T12:14:26;4.37;;;0.90;;
68089;SDS011;54880;50.986;6.990;2024-02-14T12:16:56;5.67;;;1.17;;
68089;SDS011;54880;50.986;6.990;2024-02-14T12:19:21;4.95;;;1.13;;
68089;SDS011;54880;50.986;6.990;2024-02-14T12:21:46;2.83;;;0.70;;
68089;SDS011;54880;50.986;6.990;2024-02-14T12:24:14;4.45;;;0.80;;
68089;SDS011;54880;50.986;6.990;2024-02-14T12:26:39;3.47;;;0.70;;
68089;SDS011;54880;50.986;6.990;2024-02-14T12:29:05;4.55;;;1.00;;
68089;SDS011;54880;50.986;6.990;2024-02-14T12:31:32;5.10;;;0.90;;
68089;SDS011;54880;50.986;6.990;2024-02-14T12:33:57;3.50;;;0.70;;
68089;SDS011;54880;50.986;6.990;2024-02-14T12:36:31;4.28;;;0.90;;
68089;SDS011;54880;50.986;6.990;2024-02-14T12:38:56;4.38;;;0.90;;
68089;SDS011;54880;50.986;6.990;2024-02-14T12:41:22;4.23;;;0.87;;
68089;SDS011;54880;50.986;6.990;2024-02-14T12:43:48;3.45;;;0.90;;
68089;SDS011;54880;50.986;6.990;2024-02-14T12:46:14;3.70;;;0.80;;
68089;SDS011;54880;50.986;6.990;2024-02-14T12:48:39;4.63;;;0.90;;
68089;SDS011;54880;50.986;6.990;2024-02-14T12:51:04;3.90;;;0.83;;
68089;SDS011;54880;50.986;6.990;2024-02-14T12:53:29;4.87;;;0.93;;
68089;SDS011;54880;50.986;6.990;2024-02-14T12:55:55;7.43;;;0.90;;
68089;SDS011;54880;50.986;6.990;2024-02-14T12:58:20;4.28;;;0.90;;
68089;SDS011;54880;50.986;6.990;2024-02-14T13:00:45;3.95;;;0.80;;
68089;SDS011;54880;50.986;6.990;2024-02-14T13:03:11;3.93;;;0.90;;
68089;SDS011;54880;50.986;6.990;2024-02-14T13:05:37;3.47;;;0.70;;
68089;SDS011;54880;50.986;6.990;2024-02-14T13:08:03;3.63;;;0.80;;
68089;SDS011;54880;50.986;6.990;2024-02-14T13:10:28;5.87;;;0.90;;
68089;SDS011;54880;50.986;6.990;2024-02-14T13:12:54;4.10;;;0.70;;
68089;SDS011;54880;50.986;6.990;2024-02-14T13:15:19;3.53;;;0.70;;
68089;SDS011;54880;50.986;6.990;2024-02-14T13:17:45;3.15;;;0.70;;
68089;SDS011;54880;50.986;6.990;2024-02-14T13:20:11;3.23;;;0.70;;
68089;SDS011;54880;50.986;6.990;2024-02-14T13:22:36;4.27;;;0.80;;
68089;SDS011;54880;50.986;6.990;2024-02-14T13:25:01;4.37;;;0.70;;
68089;SDS011;54880;50.986;6.990;2024-02-14T13:27:27;5.32;;;0.80;;
68089;SDS011;54880;50.986;6.990;2024-02-14T13:29:53;4.30;;;0.60;;
68089;SDS011;54880;50.986;6.990;2024-02-14T13:32:18;3.58;;;0.80;;
68089;SDS011;54880;50.986;6.990;2024-02-14T13:34:44;2.73;;;0.60;;
68089;SDS011;54880;50.986;6.990;2024-02-14T13:37:09;3.50;;;0.70;;
68089;SDS011;54880;50.986;6.990;2024-02-14T13:39:34;2.80;;;0.70;;
68089;SDS011;54880;50.986;6.990;2024-02-14T13:42:00;2.93;;;0.70;;
68089;SDS011;54880;50.986;6.990;2024-02-14T13:44:26;3.70;;;0.80;;
68089;SDS011;54880;50.986;6.990;2024-02-14T13:46:51;3.13;;;0.80;;
68089;SDS011;54880;50.986;6.990;2024-02-14T13:49:17;3.75;;;0.70;;
68089;SDS011;54880;50.986;6.990;2024-02-14T13:51:47;2.80;;;0.60;;
68089;SDS011;54880;50.986;6.990;2024-02-14T13:54:12;2.78;;;0.60;;
68089;SDS011;54880;50.986;6.990;2024-02-14T13:56:37;3.17;;;0.80;;
68089;SDS011;54880;50.986;6.990;2024-02-14T13:59:03;3.17;;;0.70;;
68089;SDS011;54880;50.986;6.990;2024-02-14T14:01:28;3.93;;;0.80;;
68089;SDS011;54880;50.986;6.990;2024-02-14T14:03:53;4.90;;;0.70;;
68089;SDS011;54880;50.986;6.990;2024-02-14T14:06:21;3.50;;;0.80;;
68089;SDS011;54880;50.986;6.990;2024-02-14T14:08:49;4.55;;;0.80;;
68089;SDS011;54880;50.986;6.990;2024-02-14T14:11:14;5.27;;;1.00;;
68089;SDS011;54880;50.986;6.990;2024-02-14T14:13:39;5.17;;;0.90;;
68089;SDS011;54880;50.986;6.990;2024-02-14T14:16:04;5.13;;;0.80;;
68089;SDS011;54880;50.986;6.990;2024-02-14T14:18:30;4.43;;;0.70;;
68089;SDS011;54880;50.986;6.990;2024-02-14T14:20:55;2.83;;;0.70;;
68089;SDS011;54880;50.986;6.990;2024-02-14T14:23:21;2.83;;;0.80;;
68089;SDS011;54880;50.986;6.990;2024-02-14T14:25:46;3.77;;;1.00;;
68089;SDS011;54880;50.986;6.990;2024-02-14T14:28:11;4.30;;;0.90;;
68089;SDS011;54880;50.986;6.990;2024-02-14T14:30:37;3.13;;;0.88;;
68089;SDS011;54880;50.986;6.990;2024-02-14T14:33:03;3.97;;;0.90;;
68089;SDS011;54880;50.986;6.990;2024-02-14T14:35:29;5.68;;;1.00;;
68089;SDS011;54880;50.986;6.990;2024-02-14T14:37:58;3.55;;;1.00;;
68089;SDS011;54880;50.986;6.990;2024-02-14T14:40:23;3.87;;;0.90;;